createdAt,value
2023-04-07T00:01:30.750Z,101394.09
2023-04-07T00:05:32.702Z,101385.28
2023-04-07T00:09:34.800Z,101393.13
2023-04-07T00:13:36.780Z,101393.97
2023-04-07T00:17:38.769Z,101403.06
2023-04-07T00:21:41.288Z,101406.81
2023-04-07T00:25:43.189Z,101406.97
2023-04-07T00:29:46.780Z,101414.22
2023-04-07T00:33:49.649Z,101419.53
2023-04-07T00:37:51.502Z,101417.13
2023-04-07T00:41:53.421Z,101415.31
2023-04-07T00:45:55.408Z,101414.47
2023-04-07T00:49:57.293Z,101411.81
2023-04-07T00:54:00.572Z,101418.13
2023-04-07T00:58:02.501Z,101407.75
2023-04-07T01:02:22.284Z,101415.97
2023-04-07T01:06:27.033Z,101409.97
2023-04-07T01:10:42.168Z,101402.09
2023-04-07T01:14:58.917Z,101406.59
2023-04-07T01:19:36.934Z,101408.53
2023-04-07T01:23:52.064Z,101404.91
2023-04-07T01:28:03.583Z,101410.38
2023-04-07T01:32:08.522Z,101420.03
2023-04-07T01:36:12.316Z,101417.22
2023-04-07T01:40:15.007Z,101416.22
2023-04-07T01:44:18.000Z,101418.78
2023-04-07T01:48:19.908Z,101423.94
2023-04-07T01:52:22.079Z,101422.28
2023-04-07T01:56:24.022Z,101423.94
2023-04-07T02:00:28.617Z,101414.03
2023-04-07T02:04:45.636Z,101406.91
2023-04-07T02:08:52.095Z,101418.28
2023-04-07T02:12:55.693Z,101411.13
2023-04-07T02:16:59.548Z,101417.13
2023-04-07T02:21:04.570Z,101424.13
2023-04-07T02:25:23.662Z,101425.94
2023-04-07T02:29:25.724Z,101429.34
2023-04-07T02:33:27.524Z,101422.19
2023-04-07T02:37:29.441Z,101430.19
2023-04-07T02:41:31.438Z,101422.06
2023-04-07T02:45:35.092Z,101420.25
2023-04-07T02:49:38.862Z,101433.56
2023-04-07T02:53:41.370Z,101418.44
2023-04-07T02:57:43.329Z,101429.91
2023-04-07T03:01:59.568Z,101430.19
2023-04-07T03:06:01.668Z,101437.16
2023-04-07T03:10:04.670Z,101433.56
2023-04-07T03:14:08.386Z,101433.56
2023-04-07T03:18:17.193Z,101443.31
2023-04-07T03:22:20.151Z,101435.22
2023-04-07T03:26:26.269Z,101437.16
2023-04-07T03:30:28.860Z,101431.84
2023-04-07T03:34:31.081Z,101434.50
2023-04-07T03:38:34.021Z,101430.19
2023-04-07T03:42:38.398Z,101436.34
2023-04-07T03:46:42.409Z,101432.97
2023-04-07T03:50:46.788Z,101430.19
2023-04-07T03:54:51.871Z,101436.59
2023-04-07T03:58:57.888Z,101440.38
2023-04-07T04:03:11.225Z,101436.00
2023-04-07T04:07:21.384Z,101445.81
2023-04-07T04:11:26.464Z,101441.47
2023-04-07T04:15:34.940Z,101456.44
2023-04-07T04:19:40.522Z,101459.94
2023-04-07T04:23:50.720Z,101459.81
2023-04-07T04:27:52.732Z,101459.81
2023-04-07T04:31:57.924Z,101465.97
2023-04-07T04:36:00.986Z,101464.31
2023-04-07T04:40:02.832Z,101467.66
2023-04-07T04:44:05.367Z,101475.78
2023-04-07T04:48:07.457Z,101469.63
2023-04-07T04:52:09.378Z,101477.59
2023-04-07T04:56:16.578Z,101478.69
2023-04-07T05:00:21.779Z,101479.66
2023-04-07T05:04:29.925Z,101481.50
2023-04-07T05:08:43.734Z,101481.75
2023-04-07T05:12:46.424Z,101480.03
2023-04-07T05:16:48.668Z,101492.25
2023-04-07T05:20:57.166Z,101486.09
2023-04-07T05:25:01.300Z,101486.09
2023-04-07T15:15:02.960Z,101864.59
2023-04-07T15:19:04.927Z,101867.84
2023-04-07T15:23:06.773Z,101869.44
2023-04-07T15:27:09.723Z,101870.53
2023-04-07T15:31:11.572Z,101867.28
2023-04-07T15:35:13.473Z,101869.09
2023-04-07T15:39:15.659Z,101871.06
2023-04-07T15:43:17.623Z,101875.81
2023-04-07T15:47:19.467Z,101875.34
2023-04-07T15:51:21.422Z,101876.56
2023-04-07T15:55:23.281Z,101882.41
2023-04-07T15:59:25.300Z,101881.84
2023-04-07T16:03:28.566Z,101884.03
2023-04-07T16:07:30.799Z,101888.28
2023-04-07T16:11:32.572Z,101887.72
2023-04-07T16:15:40.702Z,101888.03
2023-04-07T16:19:43.417Z,101896.25
2023-04-07T16:23:45.272Z,101892.66
2023-04-07T16:27:47.378Z,101895.72
2023-04-07T16:31:49.305Z,101898.25
2023-04-07T16:35:51.259Z,101895.59
2023-04-07T16:39:57.452Z,101899.47
2023-04-07T16:43:59.382Z,101904.09
2023-04-07T16:48:02.391Z,101908.69
2023-04-07T16:52:04.258Z,101912.34
2023-04-07T16:56:06.283Z,101916.94
2023-04-07T17:00:08.661Z,101918.91
2023-04-07T17:04:10.984Z,101921.94
2023-04-07T17:08:12.954Z,101937.31
2023-04-07T17:12:15.051Z,101938.53
2023-04-07T17:16:16.936Z,101936.72
2023-04-07T17:20:18.881Z,101946.50
2023-04-07T17:24:20.880Z,101949.16
2023-04-07T17:28:23.019Z,101957.16
2023-04-07T17:32:24.866Z,101963.59
2023-04-07T17:36:27.926Z,101963.84
2023-04-07T17:40:30.845Z,101966.00
2023-04-07T17:44:34.359Z,101972.22
2023-04-07T17:48:36.224Z,101975.56
2023-04-07T17:52:38.028Z,101979.97
2023-04-07T17:56:40.191Z,101972.91
2023-04-07T18:00:42.116Z,101978.38
2023-04-07T18:04:44.070Z,101989.22
2023-04-07T18:08:49.136Z,101998.19
2023-04-07T18:12:50.949Z,101993.94
2023-04-07T18:16:54.785Z,101999.41
2023-04-07T18:20:56.623Z,102009.31
2023-04-07T18:25:00.412Z,102014.03
2023-04-07T18:29:02.337Z,102017.06
2023-04-07T18:33:04.290Z,102022.63
2023-04-07T18:37:06.269Z,102027.97
2023-04-07T18:41:08.186Z,102028.56
2023-04-07T18:45:10.526Z,102036.56
2023-04-07T18:49:12.764Z,102041.75
2023-04-07T18:53:15.875Z,102050.69
2023-04-07T18:57:17.671Z,102048.16
2023-04-07T19:01:19.638Z,102055.41
2023-04-07T19:05:23.697Z,102063.53
2023-04-07T19:09:27.520Z,102068.84
2023-04-07T19:13:29.387Z,102064.59
2023-04-07T19:17:31.971Z,102078.66
2023-04-07T19:21:33.788Z,102073.34
2023-04-07T19:25:35.629Z,102081.19
2023-04-07T19:29:37.484Z,102083.75
2023-04-07T19:33:39.394Z,102080.22
2023-04-07T19:37:41.381Z,102087.34
2023-04-07T19:41:43.187Z,102082.03
2023-04-07T19:45:49.492Z,102088.34
2023-04-07T19:49:51.402Z,102091.84
2023-04-07T19:53:53.548Z,102090.16
2023-04-07T19:57:55.528Z,102100.78
2023-04-07T20:01:57.438Z,102099.94
2023-04-07T20:05:59.897Z,102097.28
2023-04-07T20:10:01.799Z,102094.41
2023-04-07T20:14:03.656Z,102099.59
2023-04-07T20:18:05.572Z,102100.56
2023-04-07T20:22:07.960Z,102099.81
2023-04-07T20:26:10.038Z,102106.00
2023-04-07T20:30:12.057Z,102115.69
2023-04-07T20:34:13.942Z,102114.59
2023-04-07T20:38:15.916Z,102125.84
2023-04-07T20:42:17.952Z,102127.53
2023-04-07T20:46:19.865Z,102128.50
2023-04-07T20:50:21.831Z,102131.41
2023-04-07T20:54:24.044Z,102125.38
2023-04-07T20:58:26.340Z,102126.34
2023-04-07T21:02:28.471Z,102121.00
2023-04-07T21:06:31.604Z,102128.03
2023-04-07T21:10:33.421Z,102129.94
2023-04-07T21:14:36.063Z,102126.56
2023-04-07T21:18:37.933Z,102128.50
2023-04-07T21:22:39.879Z,102129.47
2023-04-07T21:26:41.709Z,102136.59
2023-04-07T21:30:43.637Z,102133.81
2023-04-07T21:34:45.480Z,102137.44
2023-04-07T21:38:48.085Z,102137.44
2023-04-07T21:42:52.116Z,102127.63
2023-04-07T21:46:54.026Z,102131.03
2023-04-07T21:50:55.990Z,102130.91
2023-04-07T21:54:57.821Z,102130.78
2023-04-07T21:58:59.640Z,102138.91
2023-04-07T22:03:02.172Z,102134.78
2023-04-07T22:07:04.254Z,102141.09
2023-04-07T22:11:06.095Z,102141.31
2023-04-07T22:15:09.414Z,102144.94
2023-04-07T22:19:11.243Z,102155.59
2023-04-07T22:23:13.068Z,102158.97
2023-04-07T22:27:14.937Z,102155.59
2023-04-07T22:31:17.231Z,102170.69
2023-04-07T22:35:19.499Z,102172.50
2023-04-07T22:39:21.412Z,102167.19
2023-04-07T22:43:23.287Z,102173.25
2023-04-07T22:47:25.106Z,102176.63
2023-04-07T22:51:27.579Z,102176.88
2023-04-07T22:55:29.855Z,102185.72
2023-04-07T22:59:31.940Z,102180.25
2023-04-07T23:03:33.961Z,102182.19
2023-04-07T23:07:46.063Z,102189.22
2023-04-07T23:11:48.922Z,102193.56
2023-04-07T23:15:50.987Z,102192.59
2023-04-07T23:19:52.808Z,102200.34
2023-04-07T23:23:54.702Z,102194.19
2023-04-07T23:27:56.690Z,102203.84
2023-04-07T23:31:58.701Z,102216.09
2023-04-07T23:36:00.982Z,102209.56
2023-04-07T23:40:02.979Z,102215.63
2023-04-07T23:44:04.802Z,102205.72
2023-04-07T23:48:06.823Z,102200.59
2023-04-07T23:52:08.623Z,102212.34
2023-04-07T23:56:10.770Z,102211.75
